sensor_id;sensor_type;location;lat;lon;timestamp;pressure;altitude;pressure_sealevel;temperature;humidity
81897;BME280;71360;43.506;1.500;2024-03-22T00:00:42;99607.09;;;15.65;72.11
81897;BME280;71360;43.506;1.500;2024-03-22T00:03:07;99601.88;;;15.62;72.05
81897;BME280;71360;43.506;1.500;2024-03-22T00:05:33;99612.88;;;15.59;71.74
81897;BME280;71360;43.506;1.500;2024-03-22T00:07:58;99602.41;;;15.55;71.94
81897;BME280;71360;43.506;1.500;2024-03-22T00:10:24;99597.31;;;15.50;72.12
81897;BME280;71360;43.506;1.500;2024-03-22T00:12:50;99602.91;;;15.47;72.28
81897;BME280;71360;43.506;1.500;2024-03-22T00:15:15;99597.50;;;15.47;72.45
81897;BME280;71360;43.506;1.500;2024-03-22T00:17:43;99597.72;;;15.44;72.58
81897;BME280;71360;43.506;1.500;2024-03-22T00:20:09;99599.63;;;15.42;72.80
81897;BME280;71360;43.506;1.500;2024-03-22T00:22:34;99598.88;;;15.40;73.28
81897;BME280;71360;43.506;1.500;2024-03-22T00:25:00;99602.44;;;15.40;73.18
81897;BME280;71360;43.506;1.500;2024-03-22T00:27:26;99597.16;;;15.39;73.17
81897;BME280;71360;43.506;1.500;2024-03-22T00:29:51;99597.38;;;15.35;73.25
81897;BME280;71360;43.506;1.500;2024-03-22T00:32:17;99601.00;;;15.34;73.39
81897;BME280;71360;43.506;1.500;2024-03-22T00:34:42;99596.59;;;15.33;73.33
81897;BME280;71360;43.506;1.500;2024-03-22T00:37:08;99601.13;;;15.33;73.52
81897;BME280;71360;43.506;1.500;2024-03-22T00:39:33;99601.22;;;15.31;73.35
81897;BME280;71360;43.506;1.500;2024-03-22T00:41:59;99600.44;;;15.29;73.41
81897;BME280;71360;43.506;1.500;2024-03-22T00:44:25;99593.31;;;15.28;73.71
81897;BME280;71360;43.506;1.500;2024-03-22T00:46:50;99595.16;;;15.28;73.65
81897;BME280;71360;43.506;1.500;2024-03-22T00:49:16;99591.69;;;15.26;73.77
81897;BME280;71360;43.506;1.500;2024-03-22T00:51:41;99585.44;;;15.25;73.94
81897;BME280;71360;43.506;1.500;2024-03-22T00:54:09;99592.78;;;15.23;73.82
81897;BME280;71360;43.506;1.500;2024-03-22T00:56:34;99585.66;;;15.22;73.68
81897;BME280;71360;43.506;1.500;2024-03-22T00:59:00;99591.31;;;15.17;73.28
81897;BME280;71360;43.506;1.500;2024-03-22T01:01:26;99583.44;;;15.14;73.76
81897;BME280;71360;43.506;1.500;2024-03-22T01:03:51;99589.03;;;15.11;73.37
81897;BME280;71360;43.506;1.500;2024-03-22T01:06:17;99582.97;;;15.08;73.54
81897;BME280;71360;43.506;1.500;2024-03-22T01:08:47;99581.31;;;15.05;73.44
81897;BME280;71360;43.506;1.500;2024-03-22T01:11:13;99578.00;;;15.01;73.66
81897;BME280;71360;43.506;1.500;2024-03-22T01:13:38;99588.81;;;15.00;74.25
81897;BME280;71360;43.506;1.500;2024-03-22T01:16:04;99579.16;;;14.97;73.89
81897;BME280;71360;43.506;1.500;2024-03-22T01:18:30;99580.09;;;14.96;74.26
81897;BME280;71360;43.506;1.500;2024-03-22T01:20:55;99571.13;;;14.96;74.37
81897;BME280;71360;43.506;1.500;2024-03-22T01:23:21;99581.16;;;14.94;74.26
81897;BME280;71360;43.506;1.500;2024-03-22T01:25:46;99585.84;;;14.90;74.09
81897;BME280;71360;43.506;1.500;2024-03-22T01:28:12;99573.56;;;14.86;74.22
81897;BME280;71360;43.506;1.500;2024-03-22T01:30:38;99567.44;;;14.84;74.07
81897;BME280;71360;43.506;1.500;2024-03-22T01:33:03;99565.88;;;14.80;74.09
81897;BME280;71360;43.506;1.500;2024-03-22T01:35:29;99557.03;;;14.78;74.34
81897;BME280;71360;43.506;1.500;2024-03-22T01:37:54;99555.50;;;14.74;74.16
81897;BME280;71360;43.506;1.500;2024-03-22T01:40:20;99548.59;;;14.69;74.53
81897;BME280;71360;43.506;1.500;2024-03-22T01:42:46;99555.91;;;14.67;74.78
81897;BME280;71360;43.506;1.500;2024-03-22T01:45:13;99558.66;;;14.66;75.13
81897;BME280;71360;43.506;1.500;2024-03-22T01:47:40;99554.41;;;14.62;74.97
81897;BME280;71360;43.506;1.500;2024-03-22T01:50:07;99554.69;;;14.57;75.05
81897;BME280;71360;43.506;1.500;2024-03-22T01:52:33;99556.81;;;14.52;75.46
81897;BME280;71360;43.506;1.500;2024-03-22T01:54:58;99549.03;;;14.47;75.79
81897;BME280;71360;43.506;1.500;2024-03-22T01:57:24;99550.09;;;14.45;75.39
81897;BME280;71360;43.506;1.500;2024-03-22T01:59:51;99547.69;;;14.40;75.77
81897;BME280;71360;43.506;1.500;2024-03-22T02:02:19;99548.84;;;14.36;75.57
81897;BME280;71360;43.506;1.500;2024-03-22T02:04:44;99544.69;;;14.30;75.30
81897;BME280;71360;43.506;1.500;2024-03-22T02:07:10;99543.03;;;14.28;75.78
81897;BME280;71360;43.506;1.500;2024-03-22T02:09:35;99542.38;;;14.24;75.90
81897;BME280;71360;43.506;1.500;2024-03-22T02:12:02;99537.19;;;14.21;76.16
81897;BME280;71360;43.506;1.500;2024-03-22T02:14:28;99531.03;;;14.19;76.15
81897;BME280;71360;43.506;1.500;2024-03-22T02:16:53;99526.59;;;14.18;76.43
81897;BME280;71360;43.506;1.500;2024-03-22T02:19:19;99521.22;;;14.18;76.70
81897;BME280;71360;43.506;1.500;2024-03-22T02:21:44;99517.59;;;14.19;76.50
81897;BME280;71360;43.506;1.500;2024-03-22T02:24:10;99515.69;;;14.21;76.89
81897;BME280;71360;43.506;1.500;2024-03-22T02:26:35;99519.03;;;14.25;76.75
81897;BME280;71360;43.506;1.500;2024-03-22T02:29:01;99516.34;;;14.25;76.19
81897;BME280;71360;43.506;1.500;2024-03-22T02:31:26;99504.53;;;14.27;76.31
81897;BME280;71360;43.506;1.500;2024-03-22T02:33:52;99506.38;;;14.27;76.36
81897;BME280;71360;43.506;1.500;2024-03-22T02:36:17;99497.44;;;14.26;76.22
81897;BME280;71360;43.506;1.500;2024-03-22T02:38:43;99490.34;;;14.25;75.84
81897;BME280;71360;43.506;1.500;2024-03-22T02:41:08;99491.41;;;14.23;76.44
81897;BME280;71360;43.506;1.500;2024-03-22T02:43:34;99491.50;;;14.21;76.07
81897;BME280;71360;43.506;1.500;2024-03-22T02:46:00;99479.97;;;14.19;76.65
81897;BME280;71360;43.506;1.500;2024-03-22T02:48:25;99476.41;;;14.18;76.65
81897;BME280;71360;43.506;1.500;2024-03-22T02:50:55;99472.00;;;14.17;76.90
81897;BME280;71360;43.506;1.500;2024-03-22T02:53:21;99474.59;;;14.19;76.28
81897;BME280;71360;43.506;1.500;2024-03-22T02:55:46;99475.44;;;14.19;76.57
81897;BME280;71360;43.506;1.500;2024-03-22T02:58:12;99470.06;;;14.19;77.08
81897;BME280;71360;43.506;1.500;2024-03-22T03:00:38;99470.00;;;14.21;76.83
81897;BME280;71360;43.506;1.500;2024-03-22T03:03:07;99460.78;;;14.25;77.42
81897;BME280;71360;43.506;1.500;2024-03-22T03:05:33;99463.38;;;14.27;77.06
81897;BME280;71360;43.506;1.500;2024-03-22T03:07:58;99448.00;;;14.29;77.69
81897;BME280;71360;43.506;1.500;2024-03-22T03:10:24;99446.94;;;14.31;77.55
81897;BME280;71360;43.506;1.500;2024-03-22T03:12:50;99443.28;;;14.32;77.93
81897;BME280;71360;43.506;1.500;2024-03-22T03:15:15;99436.19;;;14.31;78.08
81897;BME280;71360;43.506;1.500;2024-03-22T03:17:44;99442.41;;;14.32;77.96
81897;BME280;71360;43.506;1.500;2024-03-22T03:20:10;99439.91;;;14.29;78.14
81897;BME280;71360;43.506;1.500;2024-03-22T03:22:44;99432.91;;;14.26;78.42
81897;BME280;71360;43.506;1.500;2024-03-22T03:25:09;99428.59;;;14.24;77.87
81897;BME280;71360;43.506;1.500;2024-03-22T03:27:35;99438.50;;;14.23;78.27
81897;BME280;71360;43.506;1.500;2024-03-22T03:30:01;99438.69;;;14.20;78.32
81897;BME280;71360;43.506;1.500;2024-03-22T03:32:27;99432.44;;;14.19;78.50
81897;BME280;71360;43.506;1.500;2024-03-22T03:34:53;99443.38;;;14.16;78.55
81897;BME280;71360;43.506;1.500;2024-03-22T03:37:19;99439.06;;;14.14;78.33
81897;BME280;71360;43.506;1.500;2024-03-22T03:39:44;99432.16;;;14.10;78.21
81897;BME280;71360;43.506;1.500;2024-03-22T03:42:10;99434.19;;;14.06;78.01
81897;BME280;71360;43.506;1.500;2024-03-22T03:44:35;99434.25;;;14.05;78.11
81897;BME280;71360;43.506;1.500;2024-03-22T03:47:02;99431.00;;;13.99;77.88
81897;BME280;71360;43.506;1.500;2024-03-22T03:49:27;99436.53;;;13.96;77.88
81897;BME280;71360;43.506;1.500;2024-03-22T03:51:53;99441.25;;;13.93;77.75
81897;BME280;71360;43.506;1.500;2024-03-22T03:54:18;99438.84;;;13.88;78.00
81897;BME280;71360;43.506;1.500;2024-03-22T03:56:44;99437.28;;;13.84;77.67
81897;BME280;71360;43.506;1.500;2024-03-22T03:59:09;99430.59;;;13.77;77.76
81897;BME280;71360;43.506;1.500;2024-03-22T04:01:35;99434.41;;;13.73;77.58
81897;BME280;71360;43.506;1.500;2024-03-22T04:04:01;99452.81;;;13.64;77.75
81897;BME280;71360;43.506;1.500;2024-03-22T04:06:27;99446.25;;;13.54;78.15
81897;BME280;71360;43.506;1.500;2024-03-22T04:08:52;99457.53;;;13.45;78.48
81897;BME280;71360;43.506;1.500;2024-03-22T04:11:18;99451.91;;;13.33;78.49
81897;BME280;71360;43.506;1.500;2024-03-22T04:13:43;99449.59;;;13.27;78.73
81897;BME280;71360;43.506;1.500;2024-03-22T04:16:09;99452.72;;;13.20;78.83
81897;BME280;71360;43.506;1.500;2024-03-22T04:18:34;99461.19;;;13.12;78.67
81897;BME280;71360;43.506;1.500;2024-03-22T04:21:01;99460.59;;;13.07;79.12
81897;BME280;71360;43.506;1.500;2024-03-22T04:23:26;99464.41;;;13.03;78.60
81897;BME280;71360;43.506;1.500;2024-03-22T04:25:59;99454.88;;;12.97;79.13
81897;BME280;71360;43.506;1.500;2024-03-22T04:28:25;99451.53;;;12.93;79.14
81897;BME280;71360;43.506;1.500;2024-03-22T04:30:59;99456.38;;;12.87;79.15
81897;BME280;71360;43.506;1.500;2024-03-22T04:33:25;99460.19;;;12.82;79.92
81897;BME280;71360;43.506;1.500;2024-03-22T04:35:51;99457.84;;;12.76;79.75
81897;BME280;71360;43.506;1.500;2024-03-22T04:38:16;99455.44;;;12.72;80.42
81897;BME280;71360;43.506;1.500;2024-03-22T04:40:42;99457.31;;;12.70;80.14
81897;BME280;71360;43.506;1.500;2024-03-22T04:43:08;99464.59;;;12.68;80.43
81897;BME280;71360;43.506;1.500;2024-03-22T04:45:33;99463.91;;;12.64;80.55
81897;BME280;71360;43.506;1.500;2024-03-22T04:48:01;99458.63;;;12.62;80.83
81897;BME280;71360;43.506;1.500;2024-03-22T04:50:27;99464.94;;;12.61;80.92
81897;BME280;71360;43.506;1.500;2024-03-22T04:52:52;99466.84;;;12.59;80.77
81897;BME280;71360;43.506;1.500;2024-03-22T04:55:18;99462.59;;;12.55;80.17
81897;BME280;71360;43.506;1.500;2024-03-22T04:57:43;99457.38;;;12.52;80.08
81897;BME280;71360;43.506;1.500;2024-03-22T05:00:09;99454.97;;;12.47;79.93
81897;BME280;71360;43.506;1.500;2024-03-22T05:02:35;99457.03;;;12.42;79.86
81897;BME280;71360;43.506;1.500;2024-03-22T05:05:00;99450.28;;;12.35;80.23
81897;BME280;71360;43.506;1.500;2024-03-22T05:07:26;99458.56;;;12.30;79.89
81897;BME280;71360;43.506;1.500;2024-03-22T05:09:52;99452.59;;;12.25;79.95
81897;BME280;71360;43.506;1.500;2024-03-22T05:12:17;99449.44;;;12.17;79.89
81897;BME280;71360;43.506;1.500;2024-03-22T05:14:43;99449.63;;;12.14;80.07
81897;BME280;71360;43.506;1.500;2024-03-22T05:17:09;99445.47;;;12.08;79.59
81897;BME280;71360;43.506;1.500;2024-03-22T05:19:34;99443.97;;;12.03;79.63
81897;BME280;71360;43.506;1.500;2024-03-22T05:22:00;99446.88;;;11.98;79.70
81897;BME280;71360;43.506;1.500;2024-03-22T05:24:26;99439.06;;;11.93;79.76
81897;BME280;71360;43.506;1.500;2024-03-22T05:26:53;99437.50;;;11.89;79.96
81897;BME280;71360;43.506;1.500;2024-03-22T05:29:18;99435.94;;;11.85;80.30
81897;BME280;71360;43.506;1.500;2024-03-22T05:31:48;99429.78;;;11.83;80.27
81897;BME280;71360;43.506;1.500;2024-03-22T05:34:14;99423.75;;;11.79;80.78
81897;BME280;71360;43.506;1.500;2024-03-22T05:36:40;99431.78;;;11.79;80.61
81897;BME280;71360;43.506;1.500;2024-03-22T05:39:06;99422.09;;;11.77;80.67
81897;BME280;71360;43.506;1.500;2024-03-22T05:41:32;99422.19;;;11.75;80.52
81897;BME280;71360;43.506;1.500;2024-03-22T05:43:57;99424.06;;;11.73;80.78
81897;BME280;71360;43.506;1.500;2024-03-22T05:46:23;99420.53;;;11.73;80.90
81897;BME280;71360;43.506;1.500;2024-03-22T05:48:48;99417.94;;;11.71;81.38
81897;BME280;71360;43.506;1.500;2024-03-22T05:51:16;99413.50;;;11.70;81.33
81897;BME280;71360;43.506;1.500;2024-03-22T05:53:41;99417.03;;;11.71;81.43
81897;BME280;71360;43.506;1.500;2024-03-22T05:56:08;99412.56;;;11.71;81.47
81897;BME280;71360;43.506;1.500;2024-03-22T05:58:34;99411.63;;;11.72;81.37
81897;BME280;71360;43.506;1.500;2024-03-22T06:01:01;99410.75;;;11.72;81.69
81897;BME280;71360;43.506;1.500;2024-03-22T06:03:28;99417.94;;;11.71;81.51
81897;BME280;71360;43.506;1.500;2024-03-22T06:05:54;99410.66;;;11.73;81.72
81897;BME280;71360;43.506;1.500;2024-03-22T06:08:22;99417.66;;;11.76;81.19
81897;BME280;71360;43.506;1.500;2024-03-22T06:10:48;99408.78;;;11.75;81.62
81897;BME280;71360;43.506;1.500;2024-03-22T06:13:13;99416.72;;;11.77;81.52
81897;BME280;71360;43.506;1.500;2024-03-22T06:15:42;99411.22;;;11.80;81.71
81897;BME280;71360;43.506;1.500;2024-03-22T06:18:11;99409.34;;;11.82;81.64
81897;BME280;71360;43.506;1.500;2024-03-22T06:20:37;99402.94;;;11.85;82.03
81897;BME280;71360;43.506;1.500;2024-03-22T06:23:02;99407.09;;;11.90;82.13
81897;BME280;71360;43.506;1.500;2024-03-22T06:25:28;99402.44;;;11.94;82.57
81897;BME280;71360;43.506;1.500;2024-03-22T06:27:53;99400.31;;;12.01;82.99
81897;BME280;71360;43.506;1.500;2024-03-22T06:30:19;99396.28;;;12.09;82.99
81897;BME280;71360;43.506;1.500;2024-03-22T06:32:44;99401.41;;;12.14;83.18
81897;BME280;71360;43.506;1.500;2024-03-22T06:35:10;99402.63;;;12.24;83.37
81897;BME280;71360;43.506;1.500;2024-03-22T06:37:38;99406.69;;;12.31;83.37
81897;BME280;71360;43.506;1.500;2024-03-22T06:40:04;99415.00;;;12.43;83.95
81897;BME280;71360;43.506;1.500;2024-03-22T06:42:30;99411.72;;;12.54;83.70
81897;BME280;71360;43.506;1.500;2024-03-22T06:44:56;99422.88;;;12.62;83.57
81897;BME280;71360;43.506;1.500;2024-03-22T06:47:21;99417.09;;;12.70;83.73
81897;BME280;71360;43.506;1.500;2024-03-22T06:49:48;99430.25;;;12.74;83.43
81897;BME280;71360;43.506;1.500;2024-03-22T06:52:14;99431.13;;;12.75;83.42
81897;BME280;71360;43.506;1.500;2024-03-22T06:54:40;99427.63;;;12.73;83.02
81897;BME280;71360;43.506;1.500;2024-03-22T06:57:06;99425.84;;;12.73;83.15
81897;BME280;71360;43.506;1.500;2024-03-22T06:59:32;99427.50;;;12.76;83.18
81897;BME280;71360;43.506;1.500;2024-03-22T07:01:57;99425.56;;;12.78;82.49
81897;BME280;71360;43.506;1.500;2024-03-22T07:04:23;99438.03;;;12.79;82.70
81897;BME280;71360;43.506;1.500;2024-03-22T07:06:49;99433.28;;;12.84;82.82
81897;BME280;71360;43.506;1.500;2024-03-22T07:09:14;99434.84;;;12.88;82.50
81897;BME280;71360;43.506;1.500;2024-03-22T07:11:40;99417.63;;;12.92;82.38
81897;BME280;71360;43.506;1.500;2024-03-22T07:14:06;99425.28;;;12.98;82.25
81897;BME280;71360;43.506;1.500;2024-03-22T07:16:32;99422.28;;;13.05;81.76
81897;BME280;71360;43.506;1.500;2024-03-22T07:18:57;99426.50;;;13.09;81.56
81897;BME280;71360;43.506;1.500;2024-03-22T07:21:23;99420.00;;;13.13;81.31
81897;BME280;71360;43.506;1.500;2024-03-22T07:23:48;99413.59;;;13.15;80.90
81897;BME280;71360;43.506;1.500;2024-03-22T07:26:14;99415.16;;;13.20;81.27
81897;BME280;71360;43.506;1.500;2024-03-22T07:28:39;99418.44;;;13.25;80.74
81897;BME280;71360;43.506;1.500;2024-03-22T07:31:05;99423.50;;;13.29;81.08
81897;BME280;71360;43.506;1.500;2024-03-22T07:33:31;99423.19;;;13.36;81.35
81897;BME280;71360;43.506;1.500;2024-03-22T07:36:02;99422.81;;;13.42;81.29
81897;BME280;71360;43.506;1.500;2024-03-22T07:38:27;99428.69;;;13.48;81.50
81897;BME280;71360;43.506;1.500;2024-03-22T07:40:53;99429.09;;;13.57;81.55
81897;BME280;71360;43.506;1.500;2024-03-22T07:43:18;99424.22;;;13.63;81.40
81897;BME280;71360;43.506;1.500;2024-03-22T07:45:44;99424.63;;;13.72;81.00
81897;BME280;71360;43.506;1.500;2024-03-22T07:48:09;99429.44;;;13.81;81.13
81897;BME280;71360;43.506;1.500;2024-03-22T07:50:35;99429.72;;;13.91;80.92
81897;BME280;71360;43.506;1.500;2024-03-22T07:53:01;99422.84;;;14.01;81.34
81897;BME280;71360;43.506;1.500;2024-03-22T07:55:26;99431.28;;;14.09;81.24
81897;BME280;71360;43.506;1.500;2024-03-22T07:57:52;99435.22;;;14.18;81.04
81897;BME280;71360;43.506;1.500;2024-03-22T08:00:18;99436.28;;;14.30;80.34
81897;BME280;71360;43.506;1.500;2024-03-22T08:02:43;99436.56;;;14.40;80.71
81897;BME280;71360;43.506;1.500;2024-03-22T08:05:09;99438.66;;;14.49;80.14
81897;BME280;71360;43.506;1.500;2024-03-22T08:07:35;99441.06;;;14.53;80.40
81897;BME280;71360;43.506;1.500;2024-03-22T08:10:00;99438.84;;;14.60;80.01
81897;BME280;71360;43.506;1.500;2024-03-22T08:12:28;99443.78;;;14.68;79.56
81897;BME280;71360;43.506;1.500;2024-03-22T08:14:53;99436.91;;;14.77;79.86
81897;BME280;71360;43.506;1.500;2024-03-22T08:17:19;99435.25;;;14.89;79.90
81897;BME280;71360;43.506;1.500;2024-03-22T08:19:45;99435.13;;;15.05;79.80
81897;BME280;71360;43.506;1.500;2024-03-22T08:22:10;99428.06;;;15.16;79.52
81897;BME280;71360;43.506;1.500;2024-03-22T08:24:36;99433.50;;;15.29;79.29
81897;BME280;71360;43.506;1.500;2024-03-22T08:27:02;99428.03;;;15.44;79.60
81897;BME280;71360;43.506;1.500;2024-03-22T08:29:28;99436.13;;;15.57;78.71
81897;BME280;71360;43.506;1.500;2024-03-22T08:31:54;99431.97;;;15.65;78.71
81897;BME280;71360;43.506;1.500;2024-03-22T08:34:21;99432.31;;;15.74;78.56
81897;BME280;71360;43.506;1.500;2024-03-22T08:36:47;99428.03;;;15.84;78.46
81897;BME280;71360;43.506;1.500;2024-03-22T08:39:12;99428.91;;;15.97;78.02
81897;BME280;71360;43.506;1.500;2024-03-22T08:41:38;99432.56;;;16.09;78.28
81897;BME280;71360;43.506;1.500;2024-03-22T08:44:05;99434.16;;;16.25;77.84
81897;BME280;71360;43.506;1.500;2024-03-22T08:46:30;99433.41;;;16.35;77.38
81897;BME280;71360;43.506;1.500;2024-03-22T08:48:57;99428.22;;;16.45;77.28
81897;BME280;71360;43.506;1.500;2024-03-22T08:51:23;99426.69;;;16.54;77.12
81897;BME280;71360;43.506;1.500;2024-03-22T08:53:48;99436.81;;;16.63;76.74
81897;BME280;71360;43.506;1.500;2024-03-22T08:56:14;99435.41;;;16.70;76.73
81897;BME280;71360;43.506;1.500;2024-03-22T08:58:39;99430.31;;;16.79;76.78
81897;BME280;71360;43.506;1.500;2024-03-22T09:01:05;99433.72;;;16.81;76.07
81897;BME280;71360;43.506;1.500;2024-03-22T09:03:31;99428.97;;;16.84;75.85
81897;BME280;71360;43.506;1.500;2024-03-22T09:05:57;99433.84;;;16.92;75.96
81897;BME280;71360;43.506;1.500;2024-03-22T09:08:23;99434.25;;;16.99;76.22
81897;BME280;71360;43.506;1.500;2024-03-22T09:10:48;99441.28;;;17.01;75.60
81897;BME280;71360;43.506;1.500;2024-03-22T09:13:14;99430.97;;;17.07;75.44
81897;BME280;71360;43.506;1.500;2024-03-22T09:15:40;99427.84;;;17.13;75.24
81897;BME280;71360;43.506;1.500;2024-03-22T09:18:05;99427.16;;;17.22;75.38
81897;BME280;71360;43.506;1.500;2024-03-22T09:20:31;99432.59;;;17.33;75.26
81897;BME280;71360;43.506;1.500;2024-03-22T09:22:57;99427.00;;;17.48;75.12
81897;BME280;71360;43.506;1.500;2024-03-22T09:25:25;99423.59;;;17.57;74.78
81897;BME280;71360;43.506;1.500;2024-03-22T09:27:51;99424.59;;;17.67;74.06
81897;BME280;71360;43.506;1.500;2024-03-22T09:30:16;99420.44;;;17.75;74.06
81897;BME280;71360;43.506;1.500;2024-03-22T09:32:42;99417.03;;;17.84;73.85
81897;BME280;71360;43.506;1.500;2024-03-22T09:35:10;99420.66;;;17.96;73.70
81897;BME280;71360;43.506;1.500;2024-03-22T09:37:40;99413.28;;;18.09;73.77
81897;BME280;71360;43.506;1.500;2024-03-22T09:40:06;99412.19;;;18.23;73.37
81897;BME280;71360;43.506;1.500;2024-03-22T09:42:33;99408.63;;;18.34;73.29
81897;BME280;71360;43.506;1.500;2024-03-22T09:45:04;99405.69;;;18.48;72.91
81897;BME280;71360;43.506;1.500;2024-03-22T09:47:33;99411.78;;;18.62;72.61
81897;BME280;71360;43.506;1.500;2024-03-22T09:50:00;99409.69;;;18.77;72.38
81897;BME280;71360;43.506;1.500;2024-03-22T09:52:26;99404.16;;;18.89;72.24
81897;BME280;71360;43.506;1.500;2024-03-22T09:54:53;99404.00;;;19.02;72.05
81897;BME280;71360;43.506;1.500;2024-03-22T09:57:19;99403.00;;;19.15;71.37
81897;BME280;71360;43.506;1.500;2024-03-22T09:59:46;99407.38;;;19.27;71.09
81897;BME280;71360;43.506;1.500;2024-03-22T10:02:13;99396.00;;;19.33;70.80
81897;BME280;71360;43.506;1.500;2024-03-22T10:04:41;99397.19;;;19.40;70.18
81897;BME280;71360;43.506;1.500;2024-03-22T10:07:07;99401.38;;;19.45;70.21
81897;BME280;71360;43.506;1.500;2024-03-22T10:09:36;99397.31;;;19.50;70.40
81897;BME280;71360;43.506;1.500;2024-03-22T10:12:02;99403.91;;;19.57;69.38
81897;BME280;71360;43.506;1.500;2024-03-22T10:14:29;99399.94;;;19.62;69.68
81897;BME280;71360;43.506;1.500;2024-03-22T10:16:55;99392.28;;;19.67;69.42
81897;BME280;71360;43.506;1.500;2024-03-22T10:19:21;99397.16;;;19.73;69.05
81897;BME280;71360;43.506;1.500;2024-03-22T10:22:07;99384.69;;;19.82;68.93
81897;BME280;71360;43.506;1.500;2024-03-22T10:24:32;99392.03;;;19.91;68.81
81897;BME280;71360;43.506;1.500;2024-03-22T10:26:58;99389.25;;;20.02;68.19
81897;BME280;71360;43.506;1.500;2024-03-22T10:29:24;99387.00;;;20.07;67.68
81897;BME280;71360;43.506;1.500;2024-03-22T10:31:54;99380.44;;;20.10;68.18
81897;BME280;71360;43.506;1.500;2024-03-22T10:34:24;99378.59;;;20.20;67.04
81897;BME280;71360;43.506;1.500;2024-03-22T10:36:50;99374.94;;;20.31;67.07
81897;BME280;71360;43.506;1.500;2024-03-22T10:39:19;99379.56;;;20.40;67.23
81897;BME280;71360;43.506;1.500;2024-03-22T10:41:48;99381.44;;;20.50;67.40
81897;BME280;71360;43.506;1.500;2024-03-22T10:44:15;99378.75;;;20.60;66.57
81897;BME280;71360;43.506;1.500;2024-03-22T10:46:44;99378.06;;;20.67;65.97
81897;BME280;71360;43.506;1.500;2024-03-22T10:49:17;99380.25;;;20.73;65.10
81897;BME280;71360;43.506;1.500;2024-03-22T10:51:57;99369.25;;;20.75;65.40
81897;BME280;71360;43.506;1.500;2024-03-22T10:54:30;99364.25;;;20.80;65.78
81897;BME280;71360;43.506;1.500;2024-03-22T10:56:58;99355.13;;;20.91;65.36
81897;BME280;71360;43.506;1.500;2024-03-22T10:59:23;99353.28;;;21.01;64.67
81897;BME280;71360;43.506;1.500;2024-03-22T11:01:49;99352.16;;;21.14;64.09
81897;BME280;71360;43.506;1.500;2024-03-22T11:04:20;99344.69;;;21.25;64.36
81897;BME280;71360;43.506;1.500;2024-03-22T11:06:51;99345.69;;;21.34;64.17
81897;BME280;71360;43.506;1.500;2024-03-22T11:09:26;99337.97;;;21.39;63.55
81897;BME280;71360;43.506;1.500;2024-03-22T11:11:52;99339.66;;;21.40;63.23
81897;BME280;71360;43.506;1.500;2024-03-22T11:14:19;99333.81;;;21.45;62.61
81897;BME280;71360;43.506;1.500;2024-03-22T11:16:46;99332.50;;;21.49;61.95
81897;BME280;71360;43.506;1.500;2024-03-22T11:19:12;99339.69;;;21.50;62.27
81897;BME280;71360;43.506;1.500;2024-03-22T11:21:38;99324.06;;;21.52;62.28
81897;BME280;71360;43.506;1.500;2024-03-22T11:24:04;99323.09;;;21.53;61.58
81897;BME280;71360;43.506;1.500;2024-03-22T11:26:30;99321.94;;;21.56;62.20
81897;BME280;71360;43.506;1.500;2024-03-22T11:28:55;99324.06;;;21.52;61.76
81897;BME280;71360;43.506;1.500;2024-03-22T11:31:22;99322.34;;;21.51;62.58
81897;BME280;71360;43.506;1.500;2024-03-22T11:33:53;99321.34;;;21.52;62.42
81897;BME280;71360;43.506;1.500;2024-03-22T11:36:19;99317.22;;;21.58;62.49
81897;BME280;71360;43.506;1.500;2024-03-22T11:38:46;99315.63;;;21.65;61.71
81897;BME280;71360;43.506;1.500;2024-03-22T11:41:14;99303.47;;;21.69;61.61
81897;BME280;71360;43.506;1.500;2024-03-22T11:43:42;99309.28;;;21.74;61.47
81897;BME280;71360;43.506;1.500;2024-03-22T11:46:08;99299.13;;;21.77;61.31
81897;BME280;71360;43.506;1.500;2024-03-22T11:48:40;99292.38;;;21.81;61.49
81897;BME280;71360;43.506;1.500;2024-03-22T11:51:07;99294.97;;;21.82;61.04
81897;BME280;71360;43.506;1.500;2024-03-22T11:53:35;99286.47;;;21.85;61.52
81897;BME280;71360;43.506;1.500;2024-03-22T11:56:00;99288.94;;;21.88;61.28
81897;BME280;71360;43.506;1.500;2024-03-22T11:58:29;99292.75;;;21.96;61.75
81897;BME280;71360;43.506;1.500;2024-03-22T12:00:56;99270.94;;;22.05;60.71
81897;BME280;71360;43.506;1.500;2024-03-22T12:03:22;99272.19;;;22.11;60.25
81897;BME280;71360;43.506;1.500;2024-03-22T12:05:47;99275.91;;;22.20;59.66
81897;BME280;71360;43.506;1.500;2024-03-22T12:08:17;99274.59;;;22.24;59.14
81897;BME280;71360;43.506;1.500;2024-03-22T12:10:43;99269.53;;;22.29;58.87
81897;BME280;71360;43.506;1.500;2024-03-22T12:13:09;99269.22;;;22.32;58.66
81897;BME280;71360;43.506;1.500;2024-03-22T12:15:34;99261.50;;;22.37;58.10
81897;BME280;71360;43.506;1.500;2024-03-22T12:18:00;99257.47;;;22.41;58.06
81897;BME280;71360;43.506;1.500;2024-03-22T12:20:26;99253.41;;;22.46;58.55
81897;BME280;71360;43.506;1.500;2024-03-22T12:22:52;99250.38;;;22.49;57.55
81897;BME280;71360;43.506;1.500;2024-03-22T12:25:18;99247.34;;;22.52;57.67
81897;BME280;71360;43.506;1.500;2024-03-22T12:27:43;99244.34;;;22.55;57.81
81897;BME280;71360;43.506;1.500;2024-03-22T12:30:10;99235.69;;;22.59;57.83
81897;BME280;71360;43.506;1.500;2024-03-22T12:32:36;99232.88;;;22.69;58.47
81897;BME280;71360;43.506;1.500;2024-03-22T12:35:01;99227.22;;;22.81;57.29
81897;BME280;71360;43.506;1.500;2024-03-22T12:37:27;99225.78;;;22.95;56.92
81897;BME280;71360;43.506;1.500;2024-03-22T12:39:53;99221.63;;;23.08;56.33
81897;BME280;71360;43.506;1.500;2024-03-22T12:42:19;99214.94;;;23.21;55.98
81897;BME280;71360;43.506;1.500;2024-03-22T12:44:45;99210.94;;;23.33;54.94
81897;BME280;71360;43.506;1.500;2024-03-22T12:47:10;99202.63;;;23.43;55.45
81897;BME280;71360;43.506;1.500;2024-03-22T12:49:36;99199.28;;;23.49;55.26
81897;BME280;71360;43.506;1.500;2024-03-22T12:52:02;99194.34;;;23.53;55.27
81897;BME280;71360;43.506;1.500;2024-03-22T12:54:29;99198.09;;;23.52;54.46